Time;durP1;ratioP1;P1;durP2;ratioP2;P2;SDS_P1;SDS_P2;PMS_P1;PMS_P2;Temp;Humidity;BMP_temperature;BMP_pressure;BME280_temperature;BME280_humidity;BME280_pressure;Samples;Min_cycle;Max_cycle;Signal;HPM_P1;HPM_P2
2021/05/12 00:02:01;;;;;;;26.13;14.90;;;11.40;99.90;;;;;;5029837;28;20046;-79
2021/05/12 00:04:27;;;;;;;26.27;15.05;;;11.40;99.90;;;;;;5029647;28;20114;-78
2021/05/12 00:06:53;;;;;;;26.00;15.18;;;11.40;99.90;;;;;;5032277;28;20395;-79
2021/05/12 00:09:19;;;;;;;24.60;15.60;;;11.30;99.90;;;;;;5023137;28;20033;-78
2021/05/12 00:11:45;;;;;;;27.38;16.90;;;11.30;99.90;;;;;;5027879;28;20116;-78
2021/05/12 00:14:11;;;;;;;28.60;15.98;;;11.40;99.90;;;;;;5032465;28;20796;-78
2021/05/12 00:16:37;;;;;;;30.52;17.77;;;11.40;99.90;;;;;;5026278;28;20045;-78
2021/05/12 00:19:03;;;;;;;35.80;19.42;;;11.40;99.90;;;;;;5043263;28;20034;-79
2021/05/12 00:21:37;;;;;;;36.50;20.50;;;11.40;99.90;;;;;;5024483;28;20386;-78
2021/05/12 00:24:04;;;;;;;36.22;21.25;;;11.40;99.90;;;;;;5027492;28;20082;-78
2021/05/12 00:26:38;;;;;;;;;;;11.40;99.90;;;;;;5035954;28;20505;-78
2021/05/12 00:29:06;;;;;;;37.03;21.17;;;11.30;99.90;;;;;;5023507;28;20047;-79
2021/05/12 00:31:32;;;;;;;42.10;23.33;;;11.20;99.90;;;;;;5026076;28;20065;-78
2021/05/12 00:33:58;;;;;;;40.85;23.75;;;11.20;99.90;;;;;;5027510;28;20041;-78
2021/05/12 00:36:24;;;;;;;44.10;23.48;;;11.30;99.90;;;;;;5025570;28;20096;-78
2021/05/12 00:38:50;;;;;;;41.28;24.38;;;11.30;99.90;;;;;;5029645;28;20071;-78
2021/05/12 00:41:16;;;;;;;44.58;24.08;;;11.20;99.90;;;;;;5027595;28;20042;-78
2021/05/12 00:43:42;;;;;;;44.53;25.23;;;11.20;99.90;;;;;;5029632;28;20080;-78
2021/05/12 00:46:08;;;;;;;47.20;25.50;;;11.30;99.90;;;;;;5029973;28;20041;-78
2021/05/12 00:48:34;;;;;;;43.45;24.27;;;11.20;99.90;;;;;;5021504;28;20121;-79
2021/05/12 00:51:00;;;;;;;42.33;22.80;;;11.30;99.90;;;;;;5038473;28;20172;-78
2021/05/12 00:53:26;;;;;;;43.13;22.80;;;11.20;99.90;;;;;;5027262;28;20105;-79
2021/05/12 00:55:52;;;;;;;44.08;23.95;;;11.20;99.90;;;;;;5021673;28;20091;-78
2021/05/12 00:58:18;;;;;;;42.25;23.40;;;11.20;99.90;;;;;;5026214;28;20092;-78
2021/05/12 01:00:44;;;;;;;41.03;23.27;;;11.30;99.90;;;;;;5019807;28;20029;-78
2021/05/12 01:03:12;;;;;;;42.97;24.02;;;11.20;99.90;;;;;;5027872;28;20059;-78
2021/05/12 01:05:58;;;;;;;41.10;23.60;;;11.20;99.90;;;;;;5037452;28;20386;-78
2021/05/12 01:08:24;;;;;;;40.15;22.58;;;11.30;99.90;;;;;;5011728;28;20033;-78
2021/05/12 01:10:50;;;;;;;44.80;21.83;;;11.30;99.90;;;;;;5015100;28;20540;-78
2021/05/12 01:13:15;;;;;;;37.85;21.15;;;11.30;99.90;;;;;;5025676;28;20377;-78
2021/05/12 01:15:43;;;;;;;42.55;21.48;;;11.30;99.90;;;;;;5026572;28;20044;-78
2021/05/12 01:18:12;;;;;;;39.88;20.88;;;11.20;99.90;;;;;;5029911;28;20111;-78
2021/05/12 01:20:54;;;;;;;41.78;22.25;;;11.20;99.90;;;;;;5024752;28;20121;-79
2021/05/12 01:23:21;;;;;;;34.95;20.45;;;11.20;99.90;;;;;;5000672;28;20037;-78
2021/05/12 01:25:48;;;;;;;37.65;19.92;;;11.20;99.90;;;;;;5028833;28;20524;-78
2021/05/12 01:28:15;;;;;;;38.58;21.50;;;11.20;99.90;;;;;;5027085;28;20403;-78
2021/05/12 01:30:41;;;;;;;42.80;23.40;;;11.20;99.90;;;;;;5020518;28;20058;-78
2021/05/12 01:33:07;;;;;;;39.30;19.88;;;11.20;99.90;;;;;;5025179;28;20439;-79
2021/05/12 01:35:33;;;;;;;36.60;20.90;;;11.20;99.90;;;;;;5032178;28;20061;-78
2021/05/12 01:38:00;;;;;;;41.13;22.15;;;11.20;99.90;;;;;;5034313;28;20041;-78
2021/05/12 01:40:26;;;;;;;36.88;20.05;;;11.20;99.90;;;;;;5036710;28;20026;-78
2021/05/12 01:42:51;;;;;;;36.75;19.10;;;11.20;99.90;;;;;;5029387;28;20055;-78
2021/05/12 01:45:17;;;;;;;38.38;19.20;;;11.20;99.90;;;;;;5035308;28;20435;-78
2021/05/12 01:47:43;;;;;;;32.13;19.33;;;11.10;99.90;;;;;;5024929;28;20426;-78
2021/05/12 01:50:13;;;;;;;37.50;19.77;;;11.20;99.90;;;;;;5033451;28;20390;-79
2021/05/12 01:52:41;;;;;;;33.50;19.02;;;11.20;99.90;;;;;;5025762;28;20049;-78
2021/05/12 01:55:09;;;;;;;39.25;18.70;;;11.20;99.90;;;;;;5024648;28;20258;-78
2021/05/12 01:57:35;;;;;;;33.35;17.90;;;11.10;99.90;;;;;;5034807;28;20029;-78
2021/05/12 02:00:14;;;;;;;33.80;19.08;;;11.20;99.90;;;;;;5035577;28;20045;-77
2021/05/12 02:02:40;;;;;;;34.80;17.83;;;11.20;99.90;;;;;;5045138;28;20045;-77
2021/05/12 02:05:08;;;;;;;29.42;17.02;;;11.20;99.90;;;;;;5026267;28;20069;-78
2021/05/12 02:07:34;;;;;;;34.17;17.95;;;11.20;99.90;;;;;;5021525;28;20044;-77
2021/05/12 02:10:00;;;;;;;30.23;16.75;;;11.20;99.90;;;;;;5020560;28;20042;-77
2021/05/12 02:12:26;;;;;;;27.38;15.88;;;11.20;99.90;;;;;;5031086;28;20390;-77
2021/05/12 02:14:52;;;;;;;30.13;17.67;;;11.20;99.90;;;;;;5032017;28;20034;-78
2021/05/12 02:17:17;;;;;;;27.50;16.70;;;11.10;99.90;;;;;;5034612;28;20037;-78
2021/05/12 02:19:44;;;;;;;25.35;16.60;;;11.10;99.90;;;;;;5023091;28;20048;-78
2021/05/12 02:22:09;;;;;;;25.05;15.00;;;11.10;99.90;;;;;;5033520;28;20765;-77
2021/05/12 02:24:35;;;;;;;28.73;16.13;;;11.20;99.90;;;;;;5033482;28;20399;-78
2021/05/12 02:27:01;;;;;;;28.15;16.55;;;11.20;99.90;;;;;;5031569;28;20040;-77
2021/05/12 02:29:27;;;;;;;26.83;15.80;;;11.20;99.90;;;;;;5025989;28;20380;-77
2021/05/12 02:31:53;;;;;;;28.67;16.52;;;11.20;99.90;;;;;;5034117;28;20049;-78
2021/05/12 02:34:18;;;;;;;28.48;17.42;;;11.20;99.90;;;;;;5031459;28;20041;-77
2021/05/12 02:36:44;;;;;;;29.23;15.82;;;11.20;99.90;;;;;;5031211;28;20399;-78
2021/05/12 02:39:10;;;;;;;33.30;18.30;;;11.20;99.90;;;;;;5042297;28;20065;-77
2021/05/12 02:41:36;;;;;;;27.13;17.02;;;11.20;99.90;;;;;;5035003;28;20037;-78
2021/05/12 02:44:02;;;;;;;29.67;15.57;;;11.20;99.90;;;;;;5014541;28;20466;-77
2021/05/12 02:46:27;;;;;;;29.52;15.50;;;11.20;99.90;;;;;;5018334;28;20034;-77
2021/05/12 02:48:53;;;;;;;30.55;17.38;;;11.20;99.90;;;;;;5023974;28;20033;-77
2021/05/12 02:51:19;;;;;;;30.23;16.52;;;11.20;99.90;;;;;;5026960;28;20544;-78
2021/05/12 02:53:45;;;;;;;32.22;16.80;;;11.20;99.90;;;;;;5023698;28;20401;-77
2021/05/12 02:56:11;;;;;;;33.90;18.55;;;11.20;99.90;;;;;;5029276;28;20060;-77
2021/05/12 02:58:37;;;;;;;29.80;17.45;;;11.20;99.90;;;;;;5030796;28;20491;-77
2021/05/12 03:01:03;;;;;;;34.15;17.23;;;11.20;99.90;;;;;;5036747;28;20132;-77
2021/05/12 03:03:29;;;;;;;37.15;17.80;;;11.20;99.90;;;;;;5028182;28;20041;-77
2021/05/12 03:05:55;;;;;;;36.10;18.23;;;11.20;99.90;;;;;;5036073;28;20041;-77
2021/05/12 03:08:20;;;;;;;38.17;20.08;;;11.20;99.90;;;;;;5036640;28;20034;-77
2021/05/12 03:10:47;;;;;;;44.40;21.10;;;11.20;99.90;;;;;;5040925;28;20166;-76
2021/05/12 03:13:12;;;;;;;;;;;11.20;99.90;;;;;;5042045;28;20200;-78
2021/05/12 03:15:39;;;;;;;39.83;20.08;;;11.20;99.90;;;;;;5017938;28;20012;-76
2021/05/12 03:18:05;;;;;;;36.78;19.95;;;11.20;99.90;;;;;;5022701;28;20041;-76
2021/05/12 03:20:33;;;;;;;45.45;21.60;;;11.20;99.90;;;;;;5030524;28;20038;-78
2021/05/12 03:23:00;;;;;;;39.20;20.25;;;11.20;99.90;;;;;;5010849;28;20029;-77
2021/05/12 03:25:27;;;;;;;44.55;21.02;;;11.20;99.90;;;;;;5027616;28;20045;-77
2021/05/12 03:27:53;;;;;;;48.47;22.50;;;11.20;99.90;;;;;;5032419;28;20046;-77
2021/05/12 03:30:29;;;;;;;43.03;20.80;;;11.10;99.90;;;;;;5023899;28;20128;-77
2021/05/12 03:32:56;;;;;;;40.95;19.88;;;11.20;99.90;;;;;;5026289;28;20475;-77
2021/05/12 03:35:24;;;;;;;54.03;22.33;;;11.10;99.90;;;;;;5026380;28;20072;-77
2021/05/12 03:37:49;;;;;;;41.83;22.10;;;11.10;99.90;;;;;;5033310;28;20068;-78
2021/05/12 03:40:16;;;;;;;44.42;21.25;;;11.20;99.90;;;;;;5026486;28;20061;-78
2021/05/12 03:42:42;;;;;;;46.55;22.88;;;11.20;99.90;;;;;;5030542;28;20045;-77
2021/05/12 03:45:10;;;;;;;48.33;23.45;;;11.20;99.90;;;;;;5033404;28;20464;-76
2021/05/12 03:47:36;;;;;;;46.67;22.65;;;11.20;99.90;;;;;;5022718;28;20115;-77
2021/05/12 03:50:04;;;;;;;51.13;23.58;;;11.20;99.90;;;;;;5032601;28;20057;-76
2021/05/12 03:52:30;;;;;;;48.65;23.60;;;11.20;99.90;;;;;;5038869;28;20034;-77
2021/05/12 03:54:56;;;;;;;51.53;23.45;;;11.20;99.90;;;;;;5044421;28;20414;-77
2021/05/12 03:57:22;;;;;;;55.22;21.85;;;11.30;99.90;;;;;;5026631;28;20038;-77
2021/05/12 03:59:47;;;;;;;48.20;23.98;;;11.20;99.90;;;;;;5038532;28;20050;-76
2021/05/12 04:02:13;;;;;;;54.25;22.58;;;11.20;99.90;;;;;;5023879;28;20116;-77
2021/05/12 04:04:39;;;;;;;44.05;21.52;;;11.20;99.90;;;;;;5028350;28;20095;-77
2021/05/12 04:07:05;;;;;;;49.50;22.85;;;11.20;99.90;;;;;;5017567;28;20064;-77
2021/05/12 04:09:31;;;;;;;48.08;22.20;;;11.30;99.90;;;;;;5029537;28;20037;-77
2021/05/12 04:11:57;;;;;;;49.53;22.42;;;11.30;99.90;;;;;;5033766;28;20168;-76
2021/05/12 04:14:23;;;;;;;50.20;24.00;;;11.30;99.90;;;;;;5042706;28;20082;-77
2021/05/12 04:16:51;;;;;;;50.75;23.75;;;11.40;99.90;;;;;;5025290;28;20036;-77
2021/05/12 04:19:17;;;;;;;44.25;22.70;;;11.40;99.90;;;;;;5020211;28;20049;-78
2021/05/12 04:21:43;;;;;;;45.08;21.95;;;11.40;99.90;;;;;;5022915;28;20037;-78
2021/05/12 04:24:09;;;;;;;42.63;23.30;;;11.40;99.90;;;;;;5031379;28;20037;-79
2021/05/12 04:26:35;;;;;;;44.35;22.20;;;11.50;99.90;;;;;;5025288;28;20463;-78
2021/05/12 04:29:01;;;;;;;45.30;21.65;;;11.50;99.90;;;;;;5032821;28;20113;-78
2021/05/12 04:31:27;;;;;;;43.42;20.98;;;11.50;99.90;;;;;;5030541;28;20045;-77
2021/05/12 04:33:53;;;;;;;45.40;21.25;;;11.50;99.90;;;;;;5013170;28;20383;-77
2021/05/12 04:36:19;;;;;;;48.55;20.80;;;11.60;99.90;;;;;;5028665;28;20088;-78
2021/05/12 04:38:45;;;;;;;39.40;20.27;;;11.50;99.90;;;;;;4997984;28;20893;-77
2021/05/12 04:41:10;;;;;;;37.00;20.30;;;11.60;99.90;;;;;;5037297;28;20069;-77
2021/05/12 04:43:36;;;;;;;39.50;19.98;;;11.60;99.90;;;;;;5039024;28;20133;-77
2021/05/12 04:46:02;;;;;;;45.67;21.25;;;11.60;99.90;;;;;;5029720;28;20497;-77
2021/05/12 04:48:29;;;;;;;36.17;18.75;;;11.60;99.90;;;;;;5027629;28;20484;-77
2021/05/12 04:50:55;;;;;;;35.13;20.25;;;11.70;99.90;;;;;;5020722;28;20041;-78
2021/05/12 04:53:21;;;;;;;41.85;20.65;;;11.70;99.90;;;;;;5026132;28;20407;-78
2021/05/12 04:55:47;;;;;;;40.78;22.95;;;11.70;99.90;;;;;;5030053;28;20120;-78
2021/05/12 04:58:13;;;;;;;40.00;20.63;;;11.70;99.90;;;;;;5025455;28;20037;-77
2021/05/12 05:00:39;;;;;;;42.08;21.67;;;11.80;99.90;;;;;;5025618;28;20479;-77
2021/05/12 05:03:06;;;;;;;40.63;22.10;;;11.80;99.90;;;;;;5022298;28;20351;-77
2021/05/12 05:05:32;;;;;;;44.88;23.73;;;11.70;99.90;;;;;;5017353;28;20033;-77
2021/05/12 05:07:58;;;;;;;38.50;22.85;;;11.70;99.90;;;;;;5027265;28;20040;-77
2021/05/12 05:10:24;;;;;;;35.35;20.45;;;11.70;99.90;;;;;;5016924;28;20111;-77
2021/05/12 05:12:50;;;;;;;37.85;19.67;;;11.70;99.90;;;;;;5010676;28;20049;-77
2021/05/12 05:15:16;;;;;;;;;;;11.70;99.90;;;;;;5020715;28;20041;-79
2021/05/12 05:17:43;;;;;;;35.17;19.75;;;11.80;99.90;;;;;;5038207;28;19931;-74
2021/05/12 05:20:11;;;;;;;37.15;20.20;;;11.80;99.90;;;;;;5030540;28;20044;-75
2021/05/12 05:22:38;;;;;;;36.38;20.48;;;11.80;99.90;;;;;;5036145;28;20124;-75
2021/05/12 05:25:05;;;;;;;33.97;18.77;;;11.30;99.90;;;;;;5029569;28;20120;-75
2021/05/12 05:27:31;;;;;;;32.85;17.52;;;11.90;99.90;;;;;;5026884;28;20042;-76
2021/05/12 05:29:56;;;;;;;31.50;20.17;;;12.00;99.90;;;;;;5013487;28;20037;-75
2021/05/12 05:32:22;;;;;;;38.67;22.17;;;12.10;99.90;;;;;;5015645;28;20040;-76
2021/05/12 05:34:49;;;;;;;32.42;18.95;;;12.20;99.90;;;;;;5025996;28;20037;-75
2021/05/12 05:37:15;;;;;;;33.45;17.63;;;12.10;99.90;;;;;;5018597;28;20033;-76
2021/05/12 05:39:41;;;;;;;34.35;19.63;;;12.00;99.90;;;;;;5025293;28;20102;-74
2021/05/12 05:42:10;;;;;;;;;;;12.10;99.90;;;;;;5022753;28;20061;-75
2021/05/12 05:44:38;;;;;;;27.10;16.40;;;12.10;99.90;;;;;;5030912;28;19928;-76
2021/05/12 05:47:04;;;;;;;29.75;17.63;;;12.20;99.90;;;;;;5026170;28;20034;-76
2021/05/12 05:49:31;;;;;;;26.23;16.58;;;12.40;99.90;;;;;;5020925;28;20038;-76
2021/05/12 05:51:57;;;;;;;26.52;16.67;;;12.50;99.90;;;;;;5026599;28;20052;-75
2021/05/12 05:54:23;;;;;;;24.75;16.38;;;12.60;99.90;;;;;;5022464;28;20038;-76
2021/05/12 05:56:49;;;;;;;;;;;12.70;99.90;;;;;;5020477;28;20033;-76
2021/05/12 05:59:15;;;;;;;28.27;15.80;;;12.70;99.90;;;;;;5024379;28;19939;-78
2021/05/12 06:01:41;;;;;;;24.50;15.27;;;12.80;99.90;;;;;;5025685;28;20042;-77
2021/05/12 06:04:07;;;;;;;21.52;14.77;;;12.70;99.90;;;;;;5024130;28;20048;-76
2021/05/12 06:06:33;;;;;;;22.63;13.60;;;12.90;99.90;;;;;;5026279;28;20133;-76
2021/05/12 06:09:00;;;;;;;20.60;12.95;;;12.90;99.90;;;;;;5025233;28;20069;-75
2021/05/12 06:11:26;;;;;;;17.98;12.45;;;12.90;99.90;;;;;;5023631;28;20045;-76
2021/05/12 06:13:52;;;;;;;21.23;12.68;;;12.90;99.90;;;;;;5021881;28;20038;-76
2021/05/12 06:16:18;;;;;;;;;;;12.90;99.90;;;;;;5020635;28;20124;-77
2021/05/12 06:18:45;;;;;;;16.02;10.85;;;12.90;99.90;;;;;;5035756;28;19987;-77
2021/05/12 06:21:12;;;;;;;17.05;11.70;;;12.90;99.90;;;;;;5023309;28;20068;-75
2021/05/12 06:23:39;;;;;;;16.38;11.75;;;13.00;99.90;;;;;;5026579;28;20517;-76
2021/05/12 06:26:14;;;;;;;16.27;10.60;;;13.00;99.90;;;;;;5044689;28;20041;-76
2021/05/12 06:28:41;;;;;;;14.40;9.65;;;13.10;99.90;;;;;;5043128;28;20069;-76
2021/05/12 06:31:07;;;;;;;15.63;10.40;;;13.10;99.90;;;;;;5024912;28;20037;-76
2021/05/12 06:33:34;;;;;;;15.82;9.35;;;13.10;99.90;;;;;;5022611;28;20040;-77
2021/05/12 06:36:00;;;;;;;15.80;9.15;;;13.00;99.90;;;;;;4999693;28;20046;-76
2021/05/12 06:38:26;;;;;;;13.80;9.90;;;12.90;99.90;;;;;;5011108;28;20099;-78
2021/05/12 06:40:52;;;;;;;11.15;7.53;;;12.90;99.90;;;;;;5013501;28;20486;-76
2021/05/12 06:43:18;;;;;;;12.73;7.78;;;12.80;99.90;;;;;;5032022;28;20038;-76
2021/05/12 06:45:44;;;;;;;12.32;7.93;;;12.80;99.90;;;;;;5023300;28;20042;-77
2021/05/12 06:48:10;;;;;;;11.90;7.78;;;12.70;99.90;;;;;;5042092;28;20120;-76
2021/05/12 06:50:36;;;;;;;12.20;7.90;;;12.80;99.90;;;;;;5021487;28;20529;-76
2021/05/12 06:53:02;;;;;;;10.25;7.00;;;12.90;99.90;;;;;;5038052;28;20140;-76
2021/05/12 06:55:28;;;;;;;14.05;7.55;;;12.90;99.90;;;;;;5025339;28;20038;-76
2021/05/12 06:57:54;;;;;;;10.80;7.07;;;13.10;99.90;;;;;;5031511;28;20061;-77
2021/05/12 07:00:20;;;;;;;14.65;7.53;;;13.20;99.90;;;;;;5021216;28;20041;-76
2021/05/12 07:02:46;;;;;;;11.32;8.00;;;13.40;99.90;;;;;;5027228;28;20065;-77
2021/05/12 07:05:14;;;;;;;12.77;7.18;;;13.50;99.90;;;;;;5022964;28;20470;-79
2021/05/12 07:07:45;;;;;;;10.95;6.30;;;13.60;99.90;;;;;;5026952;28;20121;-77
2021/05/12 07:10:12;;;;;;;11.45;5.50;;;13.50;99.90;;;;;;5028571;28;20467;-76
2021/05/12 07:12:38;;;;;;;6.63;4.55;;;13.50;99.90;;;;;;5036397;28;20409;-77
2021/05/12 07:15:05;;;;;;;;;;;13.60;99.90;;;;;;5025655;28;20044;-77
2021/05/12 07:17:33;;;;;;;7.18;4.68;;;13.70;99.90;;;;;;5018712;28;19925;-77
2021/05/12 07:19:59;;;;;;;;;;;13.80;99.90;;;;;;5028856;28;20049;-76
2021/05/12 07:22:25;;;;;;;10.23;4.07;;;13.90;99.90;;;;;;5029620;28;20268;-75
2021/05/12 07:24:52;;;;;;;8.65;3.90;;;13.90;99.90;;;;;;5023236;28;20128;-78
2021/05/12 07:27:19;;;;;;;8.05;3.63;;;14.00;99.90;;;;;;5024861;28;20050;-77
2021/05/12 07:29:46;;;;;;;5.38;3.33;;;14.00;99.90;;;;;;5020716;28;20045;-76
2021/05/12 07:32:12;;;;;;;9.07;3.50;;;14.00;99.90;;;;;;5028853;28;20041;-76
2021/05/12 07:34:38;;;;;;;;;;;14.10;99.90;;;;;;5038896;28;20076;-75
2021/05/12 07:37:06;;;;;;;6.90;3.42;;;14.10;99.90;;;;;;5024591;28;19968;-77
2021/05/12 07:39:36;;;;;;;9.02;4.80;;;14.20;99.90;;;;;;5014990;28;20738;-76
2021/05/12 07:42:07;;;;;;;8.60;4.20;;;14.30;99.90;;;;;;5026578;28;20509;-76
2021/05/12 07:44:33;;;;;;;5.63;3.67;;;14.30;99.90;;;;;;5023801;28;20169;-74
2021/05/12 07:47:01;;;;;;;9.38;4.22;;;14.40;99.90;;;;;;5017273;28;20039;-75
2021/05/12 07:49:27;;;;;;;7.07;4.03;;;14.50;99.90;;;;;;5022256;28;20037;-76
2021/05/12 07:51:53;;;;;;;5.60;3.90;;;14.50;99.90;;;;;;5031855;28;20037;-75
2021/05/12 07:54:19;;;;;;;9.75;3.90;;;14.50;99.90;;;;;;5031383;28;20372;-76
2021/05/12 07:56:50;;;;;;;8.30;3.13;;;14.50;99.90;;;;;;5024803;28;20156;-75
2021/05/12 07:59:16;;;;;;;5.97;3.55;;;14.60;99.90;;;;;;5023028;28;20751;-76
2021/05/12 08:01:44;;;;;;;5.47;2.95;;;14.70;99.90;;;;;;5023503;28;20072;-76
2021/05/12 08:04:10;;;;;;;6.88;3.45;;;14.70;99.90;;;;;;5025273;28;20505;-76
2021/05/12 08:06:37;;;;;;;5.47;3.22;;;14.80;99.90;;;;;;5024960;28;20045;-76
2021/05/12 08:09:05;;;;;;;5.20;3.45;;;15.00;99.90;;;;;;5038085;28;20075;-76
2021/05/12 08:11:32;;;;;;;6.70;3.70;;;15.00;99.90;;;;;;5017309;28;20057;-77
2021/05/12 08:14:02;;;;;;;7.28;3.60;;;15.10;99.90;;;;;;5018730;28;20045;-76
2021/05/12 08:16:32;;;;;;;10.70;2.85;;;15.00;99.90;;;;;;5009998;28;20047;-75
2021/05/12 08:19:12;;;;;;;7.03;2.80;;;14.90;99.90;;;;;;5025362;28;20044;-76
2021/05/12 08:21:39;;;;;;;5.18;2.58;;;15.00;99.90;;;;;;5021743;28;20431;-76
2021/05/12 08:24:07;;;;;;;8.40;3.53;;;15.10;99.90;;;;;;5027388;28;20041;-75
2021/05/12 08:26:34;;;;;;;8.18;3.42;;;15.20;99.90;;;;;;5028395;28;20053;-76
2021/05/12 08:29:01;;;;;;;;;;;15.30;99.90;;;;;;5024036;28;20040;-79
2021/05/12 08:31:28;;;;;;;4.50;2.42;;;15.30;99.20;;;;;;5026558;28;19946;-75
2021/05/12 08:33:54;;;;;;;4.97;2.67;;;15.30;98.40;;;;;;5026240;28;20496;-76
2021/05/12 08:36:40;;;;;;;7.45;2.60;;;15.20;99.00;;;;;;5019830;28;20050;-75
2021/05/12 08:39:07;;;;;;;;;;;15.20;98.70;;;;;;5020268;28;20103;-75
2021/05/12 08:41:35;;;;;;;5.60;2.10;;;15.20;98.70;;;;;;5023312;28;19925;-74
2021/05/12 08:44:06;;;;;;;7.22;2.58;;;15.30;97.90;;;;;;5024367;28;20202;-76
2021/05/12 08:46:33;;;;;;;5.15;2.00;;;15.40;97.10;;;;;;5024419;28;20050;-78
2021/05/12 08:49:00;;;;;;;5.80;2.53;;;15.30;97.90;;;;;;5019883;28;20361;-75
2021/05/12 08:51:26;;;;;;;5.78;2.13;;;15.30;98.40;;;;;;5026516;28;20076;-76
2021/05/12 08:53:56;;;;;;;4.50;2.22;;;15.30;98.40;;;;;;5022781;28;20042;-76
2021/05/12 08:56:22;;;;;;;5.47;2.22;;;15.40;98.20;;;;;;5026826;28;20045;-76
2021/05/12 08:58:48;;;;;;;;;;;15.50;97.90;;;;;;5026257;28;20411;-75
2021/05/12 09:01:16;;;;;;;5.20;2.22;;;15.50;98.20;;;;;;5022993;28;19931;-76
2021/05/12 09:03:44;;;;;;;6.82;1.92;;;15.50;98.20;;;;;;5014863;28;20034;-74
2021/05/12 09:06:09;;;;;;;4.90;2.22;;;15.50;97.10;;;;;;5024152;28;20750;-75
2021/05/12 09:08:36;;;;;;;4.35;2.00;;;15.60;97.10;;;;;;5026688;28;20115;-74
2021/05/12 09:11:02;;;;;;;5.28;2.03;;;15.70;96.00;;;;;;5025014;28;20379;-77
2021/05/12 09:13:39;;;;;;;3.47;1.83;;;15.80;95.70;;;;;;5013234;28;20049;-76
2021/05/12 09:16:21;;;;;;;3.88;1.90;;;15.90;95.70;;;;;;5022279;28;20487;-75
2021/05/12 09:19:07;;;;;;;5.43;1.58;;;15.90;94.60;;;;;;5026876;28;20044;-75
2021/05/12 09:21:51;;;;;;;4.05;1.75;;;16.10;94.30;;;;;;5018176;28;20572;-76
2021/05/12 09:24:27;;;;;;;4.72;1.67;;;16.30;90.90;;;;;;5020237;28;20033;-76
2021/05/12 09:26:57;;;;;;;3.58;1.73;;;16.30;92.40;;;;;;5044547;28;20049;-76
2021/05/12 09:29:25;;;;;;;8.38;2.17;;;16.40;91.20;;;;;;5022241;28;20048;-72
2021/05/12 09:31:51;;;;;;;6.22;2.25;;;16.40;91.50;;;;;;5027368;28;20049;-74
2021/05/12 09:34:17;;;;;;;5.65;1.63;;;16.40;92.20;;;;;;5025407;28;20044;-74
2021/05/12 09:36:43;;;;;;;;;;;16.40;92.70;;;;;;5024779;28;20151;-75
2021/05/12 09:39:12;;;;;;;5.45;2.10;;;16.40;93.40;;;;;;5022465;28;20000;-75
2021/05/12 09:41:38;;;;;;;6.43;2.05;;;16.60;91.70;;;;;;5027587;28;20060;-76
2021/05/12 09:44:06;;;;;;;5.25;1.92;;;16.70;90.10;;;;;;5026938;28;20171;-75
2021/05/12 09:46:40;;;;;;;5.80;1.98;;;16.70;91.00;;;;;;5025302;28;20395;-76
2021/05/12 09:49:12;;;;;;;4.70;1.90;;;16.90;90.00;;;;;;5013828;28;20061;-75
2021/05/12 09:51:41;;;;;;;7.30;2.40;;;17.00;90.50;;;;;;5017657;28;20042;-74
2021/05/12 09:54:09;;;;;;;4.45;2.10;;;17.20;90.70;;;;;;5026096;28;20216;-75
2021/05/12 09:56:55;;;;;;;5.53;2.05;;;17.30;91.70;;;;;;5021960;28;20064;-73
2021/05/12 09:59:23;;;;;;;4.90;1.95;;;17.40;90.10;;;;;;5027133;28;20052;-76
2021/05/12 10:01:50;;;;;;;6.25;2.10;;;17.30;89.10;;;;;;5027864;28;20546;-74
2021/05/12 10:04:48;;;;;;;4.57;1.63;;;17.10;89.20;;;;;;5028008;28;20041;-76
2021/05/12 10:07:21;;;;;;;5.80;2.03;;;17.20;91.10;;;;;;5020238;28;20597;-74
2021/05/12 10:09:49;;;;;;;6.13;2.53;;;17.40;90.90;;;;;;5026512;28;20033;-74
2021/05/12 10:12:17;;;;;;;6.15;2.58;;;17.50;87.50;;;;;;5019233;28;20042;-75
2021/05/12 10:14:55;;;;;;;7.15;2.30;;;17.40;86.60;;;;;;5031375;28;20056;-75
2021/05/12 10:17:22;;;;;;;5.68;2.10;;;17.10;87.60;;;;;;5029205;28;20127;-73
2021/05/12 10:19:49;;;;;;;6.70;2.30;;;17.10;85.40;;;;;;5025140;28;20095;-74
2021/05/12 10:22:16;;;;;;;6.35;2.30;;;17.00;86.10;;;;;;5024584;28;20041;-77
2021/05/12 10:24:44;;;;;;;5.93;2.20;;;17.10;85.70;;;;;;5012318;28;20049;-74
2021/05/12 10:27:14;;;;;;;4.93;1.90;;;17.10;86.10;;;;;;5028211;28;20043;-73
2021/05/12 10:29:45;;;;;;;4.65;1.98;;;17.30;87.00;;;;;;5022664;28;20463;-74
2021/05/12 10:32:26;;;;;;;4.80;1.98;;;17.60;88.10;;;;;;5023808;28;20141;-74
2021/05/12 10:35:06;;;;;;;5.50;1.98;;;17.90;85.20;;;;;;5026460;28;20049;-74
2021/05/12 10:37:42;;;;;;;6.82;2.25;;;18.00;81.50;;;;;;5038200;28;20046;-74
2021/05/12 10:40:34;;;;;;;4.93;1.75;;;18.00;79.60;;;;;;5028217;28;20045;-75
2021/05/12 10:43:25;;;;;;;5.53;2.00;;;17.80;84.90;;;;;;5021907;28;20076;-75
2021/05/12 10:45:54;;;;;;;5.93;2.20;;;18.10;83.00;;;;;;5013898;28;20462;-75
2021/05/12 10:48:40;;;;;;;7.05;2.33;;;18.10;81.00;;;;;;5025526;28;20037;-77
2021/05/12 10:51:33;;;;;;;6.72;2.42;;;18.20;79.80;;;;;;5019107;28;20072;-75
2021/05/12 10:54:02;;;;;;;7.95;2.33;;;18.20;82.50;;;;;;5039523;28;20075;-74
2021/05/12 10:56:39;;;;;;;10.23;2.33;;;18.20;78.10;;;;;;5037579;28;20057;-74
2021/05/12 10:59:13;;;;;;;5.85;2.08;;;18.00;78.50;;;;;;5027239;28;20483;-74
2021/05/12 11:01:42;;;;;;;6.90;2.33;;;17.90;81.00;;;;;;5038752;28;20045;-75
2021/05/12 11:04:13;;;;;;;7.40;2.00;;;17.90;81.20;;;;;;5029206;28;20045;-75
2021/05/12 11:06:39;;;;;;;3.95;1.75;;;17.90;80.00;;;;;;5036961;28;20476;-75
2021/05/12 11:09:10;;;;;;;8.70;2.33;;;18.00;76.50;;;;;;5027627;28;20220;-78
2021/05/12 11:11:45;;;;;;;7.75;2.45;;;18.10;79.10;;;;;;5026061;28;20112;-75
2021/05/12 11:14:32;;;;;;;6.80;2.08;;;18.30;76.00;;;;;;5027052;28;20127;-78
2021/05/12 11:17:14;;;;;;;6.68;2.72;;;18.30;74.70;;;;;;5031728;28;20107;-78
2021/05/12 11:19:44;;;;;;;7.53;2.33;;;18.20;74.30;;;;;;5010456;28;20042;-77
2021/05/12 11:25:23;;;;;;;7.17;2.50;;;18.20;78.00;;;;;;5016700;28;20534;-75
2021/05/12 11:33:39;;;;;;;8.05;2.92;;;17.80;75.30;;;;;;5026164;28;20048;-76
2021/05/12 11:36:10;;;;;;;5.82;2.10;;;17.60;77.90;;;;;;5026836;28;20049;-76
2021/05/12 11:38:37;;;;;;;7.93;2.38;;;17.70;77.20;;;;;;5018765;28;20034;-76
2021/05/12 11:41:05;;;;;;;6.07;2.10;;;17.80;77.90;;;;;;5023488;28;20037;-76
2021/05/12 11:43:54;;;;;;;8.10;2.47;;;17.90;79.80;;;;;;5024214;28;20041;-78
2021/05/12 11:46:25;;;;;;;6.82;2.33;;;17.80;78.60;;;;;;5028160;28;20269;-76
2021/05/12 11:48:57;;;;;;;12.98;2.33;;;17.60;79.70;;;;;;5016233;28;20042;-77
2021/05/12 11:51:41;;;;;;;7.00;2.10;;;17.40;80.80;;;;;;5025636;28;20037;-77
2021/05/12 11:54:14;;;;;;;7.20;2.35;;;17.50;79.70;;;;;;5019301;28;20129;-77
2021/05/12 11:57:00;;;;;;;5.28;2.53;;;17.80;79.60;;;;;;5025077;28;20049;-75
2021/05/12 11:59:30;;;;;;;4.82;2.15;;;18.00;77.00;;;;;;5025939;28;20041;-76
2021/05/12 12:02:11;;;;;;;6.65;2.00;;;17.80;75.10;;;;;;5040065;28;20037;-76
2021/05/12 12:07:05;;;;;;;6.78;2.38;;;17.90;71.40;;;;;;5023896;28;20033;-77
2021/05/12 12:09:31;;;;;;;3.75;2.10;;;17.80;74.00;;;;;;5025343;28;20033;-77
2021/05/12 12:11:58;;;;;;;5.18;2.10;;;17.60;76.60;;;;;;5024990;28;20124;-77
2021/05/12 12:14:32;;;;;;;6.38;1.95;;;17.40;77.00;;;;;;5018233;28;20041;-77
2021/05/12 12:16:59;;;;;;;6.25;2.30;;;17.30;76.70;;;;;;5007238;28;20040;-77
2021/05/12 12:19:25;;;;;;;5.80;2.60;;;17.00;79.20;;;;;;5021589;28;20042;-77
2021/05/12 12:21:54;;;;;;;6.60;2.13;;;17.10;79.00;;;;;;5038509;28;20111;-75
2021/05/12 12:24:28;;;;;;;5.32;2.10;;;17.40;80.90;;;;;;5032479;28;20049;-76
2021/05/12 12:26:57;;;;;;;7.03;2.50;;;17.80;80.60;;;;;;5028128;28;20045;-77
2021/05/12 12:29:33;;;;;;;8.00;2.20;;;18.00;78.40;;;;;;5016361;28;20129;-78
2021/05/12 12:32:08;;;;;;;8.32;2.38;;;17.80;78.50;;;;;;5015719;28;20060;-78
2021/05/12 12:34:39;;;;;;;7.65;2.20;;;17.90;79.90;;;;;;5021391;28;20037;-77
2021/05/12 12:37:11;;;;;;;6.28;2.20;;;18.00;77.90;;;;;;5028609;28;20045;-78
2021/05/12 12:39:45;;;;;;;8.38;2.63;;;17.90;78.20;;;;;;5028520;28;20029;-77
2021/05/12 12:42:16;;;;;;;7.78;2.10;;;18.10;77.00;;;;;;5024121;28;20045;-77
2021/05/12 12:44:43;;;;;;;5.13;2.50;;;18.30;75.00;;;;;;5023263;28;20456;-78
2021/05/12 12:47:15;;;;;;;6.38;1.85;;;18.30;74.40;;;;;;5025153;28;20046;-76
2021/05/12 12:50:04;;;;;;;6.18;2.60;;;18.50;74.40;;;;;;5025964;28;20068;-77
2021/05/12 12:52:29;;;;;;;7.30;2.40;;;18.50;71.80;;;;;;5025516;28;20052;-77
2021/05/12 12:55:17;;;;;;;5.93;2.00;;;18.40;73.60;;;;;;5023747;28;20045;-76
2021/05/12 12:57:49;;;;;;;4.30;1.98;;;18.30;73.60;;;;;;5024121;28;20117;-78
2021/05/12 13:00:19;;;;;;;8.07;2.30;;;18.00;74.20;;;;;;5019304;28;20050;-76